Time;durP1;ratioP1;P1;durP2;ratioP2;P2;SDS_P1;SDS_P2;PMS_P1;PMS_P2;Temp;Humidity;BMP_temperature;BMP_pressure;BME280_temperature;BME280_humidity;BME280_pressure;Samples;Min_cycle;Max_cycle;Signal;HPM_P1;HPM_P2
2023/07/04 00:03:56;;;;;;;3.58;1.90;;;19.80;99.90;;;;;;1937703;72;22137;-75
2023/07/04 00:09:28;;;;;;;3.90;1.80;;;19.80;99.90;;;;;;1922488;72;22228;-75
2023/07/04 00:12:19;;;;;;;2.62;1.80;;;19.70;99.90;;;;;;1896719;75;21110;-74
2023/07/04 00:15:14;;;;;;;3.17;1.65;;;19.70;99.90;;;;;;1884286;75;21124;-74
2023/07/04 00:18:07;;;;;;;2.22;1.72;;;19.60;99.90;;;;;;1892056;75;21058;-74
2023/07/04 00:21:04;;;;;;;3.00;1.90;;;19.70;99.90;;;;;;1883071;75;21114;-74
2023/07/04 00:23:53;;;;;;;2.90;1.72;;;19.70;99.90;;;;;;1891642;75;21150;-74
2023/07/04 00:26:45;;;;;;;3.85;2.25;;;19.80;99.90;;;;;;1887025;75;21172;-74
2023/07/04 00:29:38;;;;;;;3.30;1.90;;;19.80;99.90;;;;;;1904073;75;21112;-75
2023/07/04 00:32:29;;;;;;;2.83;1.77;;;19.80;99.90;;;;;;1873129;75;21549;-75
2023/07/04 00:35:21;;;;;;;3.12;1.90;;;19.80;99.90;;;;;;1901681;75;21063;-74
2023/07/04 00:38:13;;;;;;;4.53;2.05;;;19.80;99.90;;;;;;1900474;75;21550;-75
2023/07/04 00:41:07;;;;;;;4.10;1.60;;;19.80;99.90;;;;;;1891232;75;21066;-74
2023/07/04 00:44:07;;;;;;;2.67;1.60;;;19.80;99.90;;;;;;1880116;75;21143;-75
2023/07/04 00:49:41;;;;;;;3.72;1.90;;;19.80;99.90;;;;;;1932275;72;22166;-75
2023/07/04 00:52:33;;;;;;;3.75;1.80;;;19.80;99.90;;;;;;1873297;75;21628;-75
2023/07/04 00:55:26;;;;;;;3.40;1.67;;;19.80;99.90;;;;;;1893763;75;21121;-74
2023/07/04 01:00:59;;;;;;;3.52;2.10;;;20.00;99.90;;;;;;1949781;72;22197;-75
2023/07/04 01:03:50;;;;;;;3.00;1.72;;;20.00;99.90;;;;;;1892463;75;21135;-75
2023/07/04 01:06:45;;;;;;;4.60;1.72;;;20.10;99.90;;;;;;1897433;75;21106;-75
2023/07/04 01:09:39;;;;;;;3.83;2.17;;;20.10;99.90;;;;;;1905999;75;21094;-75
2023/07/04 01:15:11;;;;;;;3.15;2.05;;;20.10;99.90;;;;;;1967781;72;22153;-77
2023/07/04 01:20:41;;;;;;;3.72;2.00;;;20.10;99.90;;;;;;1944061;72;22130;-74
2023/07/04 01:23:36;;;;;;;2.30;2.00;;;20.10;99.90;;;;;;1921175;73;21101;-74
2023/07/04 01:26:30;;;;;;;4.10;2.00;;;20.10;99.90;;;;;;1919992;73;21093;-74
2023/07/04 01:29:22;;;;;;;4.05;2.30;;;20.10;99.90;;;;;;1882183;76;21193;-75
2023/07/04 01:32:14;;;;;;;2.45;1.80;;;20.00;99.90;;;;;;1929414;73;21166;-75
2023/07/04 01:35:11;;;;;;;2.30;1.90;;;20.00;99.90;;;;;;1919726;74;21167;-75
2023/07/04 01:40:43;;;;;;;4.25;2.27;;;19.90;99.90;;;;;;1958623;72;22197;-75
2023/07/04 01:43:34;;;;;;;3.75;1.98;;;20.00;99.90;;;;;;1925240;73;21168;-75
2023/07/04 01:49:04;;;;;;;4.12;2.30;;;20.10;99.90;;;;;;1954862;72;22611;-75
2023/07/04 01:51:55;;;;;;;4.78;2.08;;;20.10;99.90;;;;;;1926084;73;21091;-75
2023/07/04 01:54:46;;;;;;;4.20;2.20;;;20.00;99.90;;;;;;1924821;73;21201;-74
2023/07/04 01:57:37;;;;;;;3.92;2.05;;;19.90;99.90;;;;;;1927513;73;21094;-75
2023/07/04 02:00:30;;;;;;;5.22;2.33;;;19.90;99.90;;;;;;1919140;73;21161;-76
2023/07/04 02:03:22;;;;;;;3.47;2.12;;;19.70;99.90;;;;;;1920222;73;21193;-75
2023/07/04 02:06:15;;;;;;;4.28;2.30;;;19.70;99.90;;;;;;1946002;73;21170;-75
2023/07/04 02:09:06;;;;;;;3.95;2.17;;;19.70;99.90;;;;;;1923369;73;21165;-75
2023/07/04 02:14:37;;;;;;;3.92;2.60;;;19.60;99.90;;;;;;1937970;72;22182;-75
2023/07/04 02:17:29;;;;;;;4.47;2.83;;;19.50;99.90;;;;;;1887628;75;21164;-75
2023/07/04 02:20:20;;;;;;;5.83;2.52;;;19.50;99.90;;;;;;1876780;75;21051;-75
2023/07/04 02:25:53;;;;;;;3.83;2.08;;;19.60;99.90;;;;;;1934061;72;22151;-75
2023/07/04 02:28:45;;;;;;;4.78;2.72;;;19.60;99.90;;;;;;1944191;73;21086;-75
2023/07/04 02:34:16;;;;;;;3.87;2.40;;;19.40;99.90;;;;;;1937900;72;22101;-75
2023/07/04 02:39:49;;;;;;;4.10;2.80;;;19.50;99.90;;;;;;1939121;72;22693;-75
2023/07/04 02:42:41;;;;;;;5.42;2.77;;;19.40;99.90;;;;;;1902259;75;21050;-74
2023/07/04 02:45:32;;;;;;;4.90;2.98;;;19.50;99.90;;;;;;1883873;75;21101;-75
2023/07/04 02:51:03;;;;;;;4.37;3.17;;;19.40;99.90;;;;;;1952459;72;22648;-75
2023/07/04 02:53:56;;;;;;;4.62;3.08;;;19.30;99.90;;;;;;1916896;75;21130;-75
2023/07/04 02:56:48;;;;;;;4.15;2.83;;;19.20;99.90;;;;;;1916973;75;21381;-74
2023/07/04 02:59:41;;;;;;;4.03;2.58;;;19.20;99.90;;;;;;1918614;73;21113;-74
2023/07/04 03:02:33;;;;;;;3.17;2.58;;;19.20;99.90;;;;;;1916989;75;21108;-75
2023/07/04 03:05:27;;;;;;;5.25;3.10;;;19.20;99.90;;;;;;1916959;75;21062;-75
2023/07/04 03:08:18;;;;;;;4.03;2.42;;;19.10;99.90;;;;;;1916940;75;21106;-74
2023/07/04 03:13:51;;;;;;;5.28;2.62;;;19.10;99.90;;;;;;1933590;72;22589;-75
2023/07/04 03:19:21;;;;;;;4.05;2.60;;;19.10;99.90;;;;;;1916963;72;22185;-75
2023/07/04 03:24:58;;;;;;;4.58;2.40;;;19.10;99.90;;;;;;1936660;72;22205;-75
2023/07/04 03:27:50;;;;;;;4.35;2.50;;;19.00;99.90;;;;;;1900874;75;21097;-74
2023/07/04 03:30:42;;;;;;;4.45;2.67;;;19.00;99.90;;;;;;1901937;75;21189;-75
2023/07/04 03:33:36;;;;;;;6.20;3.10;;;19.00;99.90;;;;;;1913108;75;21156;-75
2023/07/04 03:36:27;;;;;;;3.98;2.47;;;18.90;99.90;;;;;;1901438;75;21228;-75
2023/07/04 03:39:18;;;;;;;4.25;2.62;;;18.90;99.90;;;;;;1892299;75;21113;-75
2023/07/04 03:42:11;;;;;;;5.50;2.80;;;18.90;99.90;;;;;;1901821;75;21128;-75
2023/07/04 03:45:02;;;;;;;3.92;2.33;;;18.80;99.90;;;;;;1908450;75;21147;-75
2023/07/04 03:47:53;;;;;;;5.10;2.70;;;18.80;99.90;;;;;;1912098;75;21098;-75
2023/07/04 03:50:45;;;;;;;4.10;2.55;;;18.80;99.90;;;;;;1915250;75;21106;-74
2023/07/04 03:53:37;;;;;;;6.83;2.87;;;18.80;99.90;;;;;;1897840;75;21132;-75
2023/07/04 03:56:29;;;;;;;3.27;2.45;;;18.80;99.90;;;;;;1902645;75;21138;-75
2023/07/04 03:59:22;;;;;;;3.50;2.62;;;18.70;99.90;;;;;;1916737;75;21087;-74
2023/07/04 04:02:13;;;;;;;5.17;2.50;;;18.70;99.90;;;;;;1899659;75;21110;-74
2023/07/04 04:05:05;;;;;;;3.62;2.52;;;18.60;99.90;;;;;;1907697;75;21089;-74
2023/07/04 04:07:57;;;;;;;3.52;2.60;;;18.50;99.90;;;;;;1910890;75;21128;-76
2023/07/04 04:10:48;;;;;;;4.20;2.75;;;18.50;99.90;;;;;;1900116;75;21169;-75
2023/07/04 04:13:40;;;;;;;3.83;2.75;;;18.50;99.90;;;;;;1903271;75;21233;-75
2023/07/04 04:19:10;;;;;;;4.28;2.55;;;18.40;99.90;;;;;;1952145;72;22216;-77
2023/07/04 04:22:02;;;;;;;4.95;2.30;;;18.40;99.90;;;;;;1910478;73;21182;-75
2023/07/04 04:30:13;;;;;;;6.85;2.80;;;18.50;99.90;;;;;;1950201;72;22197;-75
2023/07/04 04:33:05;;;;;;;3.12;2.70;;;18.60;99.90;;;;;;1901556;75;21152;-75
2023/07/04 04:35:56;;;;;;;3.60;2.70;;;18.60;99.90;;;;;;1905732;75;21056;-76
2023/07/04 04:38:50;;;;;;;5.92;2.98;;;18.60;99.90;;;;;;1897263;75;21149;-76
2023/07/04 04:41:41;;;;;;;4.90;2.70;;;18.60;99.90;;;;;;1898131;75;21051;-75
2023/07/04 04:44:33;;;;;;;3.02;2.47;;;18.70;99.90;;;;;;1889847;75;21113;-75
2023/07/04 04:47:25;;;;;;;4.83;2.45;;;18.60;99.90;;;;;;1902885;75;21141;-75
2023/07/04 04:50:17;;;;;;;3.67;2.75;;;18.50;99.90;;;;;;1908635;74;21099;-76
2023/07/04 04:53:14;;;;;;;5.22;2.87;;;18.50;99.90;;;;;;1897230;75;21321;-76
2023/07/04 04:56:01;;;;;;;4.37;3.40;;;18.50;99.90;;;;;;1884784;75;21082;-76
2023/07/04 04:58:54;;;;;;;39.50;31.15;;;18.50;99.90;;;;;;1903006;75;21192;-76
2023/07/04 05:01:45;;;;;;;16.62;11.97;;;18.50;99.90;;;;;;1887058;73;21098;-75
2023/07/04 05:07:23;;;;;;;14.35;11.25;;;18.40;99.90;;;;;;1937444;72;22172;-75
2023/07/04 05:10:12;;;;;;;9.88;5.10;;;18.50;99.90;;;;;;1895144;74;21134;-75
2023/07/04 05:13:03;;;;;;;5.03;3.22;;;18.60;99.90;;;;;;1904815;75;21128;-75
2023/07/04 05:16:03;;;;;;;7.47;3.65;;;18.60;99.90;;;;;;1889651;75;21257;-75
2023/07/04 05:18:54;;;;;;;3.92;3.10;;;18.50;99.90;;;;;;1902135;75;21133;-75
2023/07/04 05:24:24;;;;;;;5.25;3.17;;;18.60;99.90;;;;;;1943300;72;22215;-77
2023/07/04 05:29:57;;;;;;;5.12;3.40;;;18.60;99.90;;;;;;1933278;72;22177;-75
2023/07/04 05:35:27;;;;;;;5.25;3.20;;;18.70;99.90;;;;;;1950268;72;22705;-74
2023/07/04 05:40:58;;;;;;;5.00;2.80;;;18.80;99.90;;;;;;1929713;72;22267;-74
2023/07/04 05:43:50;;;;;;;4.87;2.75;;;18.80;99.90;;;;;;1898843;75;21500;-75
2023/07/04 05:49:21;;;;;;;5.22;2.90;;;18.70;99.90;;;;;;1931935;72;22209;-76
2023/07/04 05:54:50;;;;;;;4.92;3.42;;;18.60;99.90;;;;;;1932540;72;22429;-75
2023/07/04 05:57:41;;;;;;;7.03;3.62;;;18.70;99.90;;;;;;1924404;73;21129;-74
2023/07/04 06:00:35;;;;;;;7.58;3.87;;;18.70;99.90;;;;;;1920605;73;21093;-74
2023/07/04 06:06:06;;;;;;;5.15;3.35;;;18.90;99.90;;;;;;1959535;72;22219;-74
2023/07/04 06:09:00;;;;;;;5.72;3.35;;;18.90;99.90;;;;;;1921631;73;21102;-74
2023/07/04 06:11:52;;;;;;;9.80;5.35;;;19.10;99.90;;;;;;1928752;73;21086;-74
2023/07/04 06:17:23;;;;;;;6.65;3.80;;;19.20;99.90;;;;;;1944331;72;22134;-74
2023/07/04 06:20:16;;;;;;;6.25;3.62;;;19.30;99.90;;;;;;1932219;73;21183;-74
2023/07/04 06:23:08;;;;;;;5.03;3.37;;;19.30;99.90;;;;;;1929453;73;21169;-75
2023/07/04 06:25:59;;;;;;;6.80;3.62;;;19.30;99.90;;;;;;1922472;73;21168;-74
2023/07/04 06:28:51;;;;;;;5.78;3.10;;;19.40;99.90;;;;;;1933981;73;21178;-74
2023/07/04 06:31:42;;;;;;;7.42;3.30;;;19.50;99.90;;;;;;1918975;73;21530;-74
2023/07/04 06:34:36;;;;;;;4.72;3.22;;;19.60;99.90;;;;;;1916685;73;21107;-74
2023/07/04 06:37:27;;;;;;;4.92;3.95;;;19.70;99.90;;;;;;1917358;73;21165;-74
2023/07/04 06:40:20;;;;;;;9.13;3.70;;;19.80;99.90;;;;;;1916279;75;21082;-75
2023/07/04 06:43:12;;;;;;;6.87;3.20;;;19.80;99.90;;;;;;1887312;75;21535;-75
2023/07/04 06:46:03;;;;;;;7.42;3.55;;;20.00;99.90;;;;;;1942765;73;21572;-75
2023/07/04 06:48:55;;;;;;;6.10;3.35;;;20.00;99.90;;;;;;1925251;73;21618;-75
2023/07/04 06:54:25;;;;;;;6.90;3.30;;;20.20;99.90;;;;;;1942381;72;22292;-76
2023/07/04 06:57:16;;;;;;;10.65;7.03;;;20.30;99.90;;;;;;1837236;76;21194;-75
2023/07/04 07:00:11;;;;;;;4.80;3.55;;;20.40;99.90;;;;;;1899727;75;21148;-74
2023/07/04 07:03:02;;;;;;;5.33;3.35;;;20.50;99.90;;;;;;1914467;75;21121;-75
2023/07/04 07:05:54;;;;;;;4.85;3.45;;;20.50;99.90;;;;;;1890514;75;21158;-75
2023/07/04 07:14:14;;;;;;;5.50;3.47;;;20.50;99.90;;;;;;1932454;72;22221;-74
2023/07/04 07:17:07;;;;;;;5.83;3.25;;;20.60;99.90;;;;;;1896021;75;21220;-75
2023/07/04 07:19:58;;;;;;;4.55;3.10;;;20.60;99.90;;;;;;1903107;75;21106;-75
2023/07/04 07:22:50;;;;;;;4.00;3.00;;;20.50;99.90;;;;;;1897400;75;21785;-74
2023/07/04 07:25:41;;;;;;;6.20;3.37;;;20.50;99.90;;;;;;1903872;75;21634;-74
2023/07/04 07:36:37;;;;;;;4.90;3.30;;;20.60;99.90;;;;;;1930856;72;22350;-74
2023/07/04 07:39:30;;;;;;;6.90;3.92;;;20.80;99.90;;;;;;1913023;75;21257;-75
2023/07/04 07:42:21;;;;;;;5.47;3.65;;;20.90;99.90;;;;;;1907853;75;21113;-76
2023/07/04 07:45:14;;;;;;;7.53;3.80;;;20.90;99.90;;;;;;1886264;75;21100;-75
2023/07/04 07:48:06;;;;;;;4.85;3.62;;;21.00;99.90;;;;;;1886533;75;21090;-74
2023/07/04 07:50:58;;;;;;;7.12;3.58;;;21.00;99.90;;;;;;1905253;75;21455;-75
2023/07/04 07:59:12;;;;;;;6.80;3.75;;;21.20;99.90;;;;;;1949028;72;22234;-75
2023/07/04 08:04:42;;;;;;;5.78;3.15;;;21.30;99.90;;;;;;1937737;72;22129;-74
2023/07/04 08:10:12;;;;;;;5.37;3.20;;;21.30;99.90;;;;;;1946906;72;22707;-75
2023/07/04 08:13:03;;;;;;;3.87;2.87;;;21.40;99.90;;;;;;1901500;75;21164;-75
2023/07/04 08:15:56;;;;;;;4.78;3.25;;;21.50;99.90;;;;;;1908847;75;21271;-75
2023/07/04 08:18:47;;;;;;;7.30;3.22;;;21.60;99.90;;;;;;1903592;75;21080;-75
2023/07/04 08:24:18;;;;;;;4.20;2.20;;;21.60;99.90;;;;;;1940505;72;22165;-75
2023/07/04 08:27:09;;;;;;;4.55;2.70;;;21.70;99.90;;;;;;1896814;75;21086;-75
2023/07/04 08:30:00;;;;;;;4.45;2.33;;;21.80;99.90;;;;;;1903074;75;21191;-74
2023/07/04 08:32:54;;;;;;;3.27;2.60;;;21.80;99.90;;;;;;1911381;75;21051;-75
2023/07/04 08:35:55;;;;;;;4.53;2.37;;;21.90;99.90;;;;;;1881295;75;21156;-76
2023/07/04 08:41:34;;;;;;;5.03;2.20;;;22.00;99.90;;;;;;1932346;72;22173;-74
2023/07/04 08:44:28;;;;;;;3.17;2.08;;;22.10;99.90;;;;;;1908389;74;21172;-75
2023/07/04 08:47:25;;;;;;;5.47;1.70;;;22.20;99.90;;;;;;1889045;75;21168;-75
2023/07/04 08:50:19;;;;;;;2.15;1.60;;;22.40;99.90;;;;;;1872320;76;21177;-75
2023/07/04 08:53:13;;;;;;;2.90;1.50;;;22.50;99.90;;;;;;1893774;75;21635;-75
2023/07/04 08:56:08;;;;;;;2.42;1.17;;;22.60;99.90;;;;;;1896236;75;21099;-75
2023/07/04 08:59:09;;;;;;;2.37;1.10;;;22.70;99.90;;;;;;1884774;75;21186;-75
2023/07/04 09:02:06;;;;;;;3.35;1.27;;;22.90;99.90;;;;;;1872372;76;21127;-75
2023/07/04 09:05:04;;;;;;;3.70;1.15;;;22.90;99.90;;;;;;1870225;75;21157;-75
2023/07/04 09:08:02;;;;;;;1.55;1.12;;;23.00;99.90;;;;;;1882664;75;21107;-75
2023/07/04 09:10:57;;;;;;;2.33;1.17;;;23.00;99.90;;;;;;1876405;75;21176;-75
2023/07/04 09:16:36;;;;;;;2.47;0.98;;;23.20;99.90;;;;;;1953922;72;22130;-74
2023/07/04 09:19:29;;;;;;;2.62;1.15;;;23.20;99.90;;;;;;1896511;75;21067;-75
2023/07/04 09:22:21;;;;;;;3.20;1.40;;;23.30;99.90;;;;;;1886539;75;21117;-75
2023/07/04 09:25:12;;;;;;;1.10;0.90;;;23.40;99.90;;;;;;1905196;75;21200;-75
2023/07/04 09:28:05;;;;;;;2.87;0.90;;;23.40;99.90;;;;;;1883429;76;21126;-75
2023/07/04 09:30:59;;;;;;;1.27;0.80;;;23.50;99.90;;;;;;1898199;75;21151;-74
2023/07/04 09:33:54;;;;;;;1.55;1.10;;;23.60;99.90;;;;;;1906598;75;21428;-75
2023/07/04 09:36:45;;;;;;;3.15;1.10;;;23.70;99.90;;;;;;1905868;75;21094;-75
2023/07/04 09:39:48;;;;;;;3.77;0.98;;;23.70;99.90;;;;;;1905784;75;21132;-75
2023/07/04 09:42:45;;;;;;;1.55;0.95;;;23.80;99.90;;;;;;1904121;75;21586;-75
2023/07/04 09:45:39;;;;;;;1.67;0.88;;;23.80;99.90;;;;;;1899726;75;21169;-75
2023/07/04 09:48:30;;;;;;;1.82;1.10;;;23.90;99.90;;;;;;1894920;75;21120;-75
2023/07/04 09:51:25;;;;;;;3.20;1.32;;;23.90;99.90;;;;;;1894450;75;21117;-75
2023/07/04 09:54:18;;;;;;;1.85;1.00;;;24.00;99.90;;;;;;1893205;75;21059;-75
2023/07/04 09:57:23;;;;;;;2.02;1.00;;;24.00;99.90;;;;;;1884991;75;21107;-75
2023/07/04 10:00:22;;;;;;;1.15;1.00;;;24.00;99.90;;;;;;1900266;75;21106;-75
2023/07/04 10:03:15;;;;;;;2.22;0.95;;;24.20;99.90;;;;;;1896106;75;21134;-76
2023/07/04 10:06:06;;;;;;;2.70;1.10;;;24.10;99.90;;;;;;1909585;75;21116;-76
2023/07/04 10:08:58;;;;;;;1.62;1.00;;;24.20;99.90;;;;;;1885731;75;21071;-76
2023/07/04 10:11:51;;;;;;;1.25;0.90;;;24.30;99.90;;;;;;1898214;75;21717;-76
2023/07/04 10:14:48;;;;;;;1.85;1.00;;;24.20;99.90;;;;;;1898114;75;21117;-76
2023/07/04 10:17:40;;;;;;;1.92;1.10;;;24.30;99.90;;;;;;1894800;75;21103;-76
2023/07/04 10:20:36;;;;;;;2.12;1.10;;;24.40;99.90;;;;;;1894993;75;21184;-76
2023/07/04 10:23:30;;;;;;;2.08;0.85;;;24.50;99.90;;;;;;1893753;75;21061;-75
2023/07/04 10:26:22;;;;;;;7.42;4.75;;;24.60;99.90;;;;;;1901704;75;21575;-75
2023/07/04 10:29:14;;;;;;;3.52;1.30;;;24.60;99.90;;;;;;1895929;75;21321;-75
2023/07/04 10:32:09;;;;;;;1.12;0.90;;;24.70;99.90;;;;;;1886517;75;21599;-74
2023/07/04 10:35:01;;;;;;;1.10;1.00;;;24.80;99.90;;;;;;1905190;75;21110;-75
2023/07/04 10:37:55;;;;;;;2.40;1.30;;;24.90;99.90;;;;;;1883272;76;21141;-75
2023/07/04 10:40:47;;;;;;;1.12;0.80;;;25.00;99.90;;;;;;1898682;75;21550;-75
2023/07/04 10:43:42;;;;;;;1.47;0.90;;;25.00;99.90;;;;;;1894019;75;21090;-75
2023/07/04 10:46:39;;;;;;;1.80;0.82;;;25.10;99.90;;;;;;1894415;75;21180;-75
2023/07/04 10:49:33;;;;;;;1.80;0.70;;;25.10;99.90;;;;;;1914621;75;21114;-75
2023/07/04 10:52:27;;;;;;;1.70;0.90;;;25.20;99.90;;;;;;1902034;75;21212;-75
2023/07/04 10:55:22;;;;;;;1.40;0.90;;;25.30;99.90;;;;;;1897383;75;21168;-74
2023/07/04 10:58:16;;;;;;;1.22;0.65;;;25.40;99.90;;;;;;1906525;75;21135;-75
2023/07/04 11:01:10;;;;;;;1.12;0.70;;;25.40;99.90;;;;;;1883571;76;21146;-75
2023/07/04 11:04:05;;;;;;;2.52;0.82;;;25.30;99.90;;;;;;1905075;75;21102;-74
2023/07/04 11:07:00;;;;;;;1.85;0.80;;;25.20;99.90;;;;;;1902274;75;21553;-75
2023/07/04 11:09:54;;;;;;;1.42;0.75;;;25.30;99.90;;;;;;1897418;75;21157;-75
2023/07/04 11:12:46;;;;;;;1.70;0.80;;;25.30;99.90;;;;;;1894280;75;21865;-74
2023/07/04 11:15:40;;;;;;;1.37;0.82;;;25.30;99.90;;;;;;1911386;75;21131;-74
2023/07/04 11:18:34;;;;;;;0.70;0.70;;;25.50;99.90;;;;;;1904452;75;21124;-75
2023/07/04 11:21:26;;;;;;;1.02;0.75;;;25.60;99.90;;;;;;1883518;76;21164;-75
2023/07/04 11:24:20;;;;;;;0.88;0.50;;;25.70;99.90;;;;;;1895802;75;21165;-75
2023/07/04 11:27:17;;;;;;;1.57;0.80;;;25.70;99.90;;;;;;1894157;75;21091;-74
2023/07/04 11:30:13;;;;;;;1.65;0.80;;;25.70;99.90;;;;;;1893920;75;21113;-74
2023/07/04 11:33:07;;;;;;;1.45;0.80;;;25.80;99.90;;;;;;1894233;75;21536;-74
2023/07/04 11:36:00;;;;;;;0.90;0.70;;;25.70;99.90;;;;;;1879668;76;21194;-75
2023/07/04 11:38:54;;;;;;;2.05;0.88;;;25.80;99.90;;;;;;1894632;75;21464;-75
2023/07/04 11:41:47;;;;;;;1.42;0.80;;;26.00;99.90;;;;;;1886299;75;21148;-76
2023/07/04 11:44:49;;;;;;;2.30;0.82;;;26.00;99.90;;;;;;1905419;75;21093;-75
2023/07/04 11:47:45;;;;;;;2.87;0.90;;;26.10;99.90;;;;;;1904680;75;21103;-75
2023/07/04 11:50:38;;;;;;;2.00;0.60;;;26.20;99.90;;;;;;1899446;75;21208;-74
2023/07/04 11:53:36;;;;;;;1.80;0.88;;;26.00;99.90;;;;;;1895307;75;21172;-76
2023/07/04 11:56:38;;;;;;;2.02;0.70;;;26.10;99.90;;;;;;1893834;75;21168;-75
2023/07/04 11:59:42;;;;;;;1.98;0.65;;;26.20;99.90;;;;;;1893826;75;21201;-75
2023/07/04 12:02:34;;;;;;;0.80;0.60;;;26.20;99.90;;;;;;1913362;75;21562;-75
2023/07/04 12:05:34;;;;;;;1.17;0.75;;;26.10;99.90;;;;;;1903475;75;21090;-75
2023/07/04 12:08:28;;;;;;;2.15;0.80;;;26.20;99.90;;;;;;1915961;75;21147;-76
2023/07/04 12:11:22;;;;;;;0.65;0.60;;;26.20;99.90;;;;;;1894830;75;21156;-76
2023/07/04 12:14:16;;;;;;;2.58;0.60;;;26.20;99.90;;;;;;1893823;75;21164;-75
2023/07/04 12:17:10;;;;;;;1.10;0.60;;;26.30;99.90;;;;;;1894918;74;21071;-74
2023/07/04 12:20:09;;;;;;;1.05;0.70;;;26.30;99.90;;;;;;1925616;74;21542;-74
2023/07/04 12:23:02;;;;;;;1.10;0.57;;;26.40;99.90;;;;;;1925798;74;21164;-74
2023/07/04 12:25:55;;;;;;;0.50;0.50;;;26.40;99.90;;;;;;1903657;74;21881;-74
2023/07/04 12:28:48;;;;;;;1.50;1.00;;;26.50;99.90;;;;;;1903835;74;21054;-74
2023/07/04 12:31:39;;;;;;;0.72;0.70;;;26.50;99.90;;;;;;1903418;74;21102;-74
2023/07/04 12:34:33;;;;;;;2.17;0.85;;;26.60;99.90;;;;;;1907643;74;21066;-74
2023/07/04 12:37:28;;;;;;;1.12;0.60;;;26.70;99.90;;;;;;1892809;76;21158;-74
2023/07/04 12:40:22;;;;;;;1.70;0.60;;;26.80;99.90;;;;;;1915136;74;21123;-74
2023/07/04 12:43:17;;;;;;;0.50;0.50;;;26.90;99.90;;;;;;1896625;74;21171;-75
2023/07/04 12:46:10;;;;;;;1.60;0.72;;;26.90;99.90;;;;;;1904165;74;21235;-74
2023/07/04 12:49:04;;;;;;;1.05;0.60;;;26.80;99.90;;;;;;1892987;74;21071;-76
2023/07/04 12:51:59;;;;;;;1.70;0.78;;;26.90;99.90;;;;;;1904769;74;21117;-75
2023/07/04 12:54:50;;;;;;;1.95;0.78;;;27.00;99.90;;;;;;1903121;74;21131;-74
2023/07/04 12:57:41;;;;;;;1.12;0.60;;;27.00;99.90;;;;;;1923053;74;21134;-75
2023/07/04 13:00:34;;;;;;;0.70;0.60;;;27.10;99.90;;;;;;1892661;76;21129;-75
2023/07/04 13:03:25;;;;;;;0.95;0.60;;;27.10;99.90;;;;;;1907570;74;21181;-75
2023/07/04 13:06:21;;;;;;;2.60;0.68;;;27.30;99.90;;;;;;1916205;74;21121;-75
2023/07/04 13:09:12;;;;;;;1.42;0.62;;;27.30;99.90;;;;;;1914965;74;21105;-75
2023/07/04 13:12:04;;;;;;;1.30;0.68;;;27.20;99.90;;;;;;1914678;74;21533;-75
2023/07/04 13:15:08;;;;;;;1.30;0.80;;;27.30;99.90;;;;;;1909038;74;21298;-75
2023/07/04 13:18:02;;;;;;;1.42;0.65;;;27.30;99.90;;;;;;1906521;74;21101;-75
2023/07/04 13:20:58;;;;;;;1.67;0.62;;;27.40;99.90;;;;;;1903418;74;21052;-75
2023/07/04 13:23:50;;;;;;;1.50;0.65;;;27.50;99.90;;;;;;1903393;74;21160;-75
2023/07/04 13:26:43;;;;;;;0.88;0.70;;;27.50;99.90;;;;;;1903735;74;21102;-75
2023/07/04 13:29:35;;;;;;;1.75;0.90;;;27.60;99.90;;;;;;1908322;74;21131;-75
2023/07/04 13:32:31;;;;;;;1.98;0.70;;;27.50;99.90;;;;;;1892837;74;21075;-75
2023/07/04 13:35:31;;;;;;;1.07;0.80;;;27.60;99.90;;;;;;1901159;74;21172;-75
2023/07/04 13:38:23;;;;;;;1.00;0.90;;;27.60;99.90;;;;;;1898655;74;21195;-75
2023/07/04 13:41:22;;;;;;;0.88;0.60;;;27.80;99.90;;;;;;1914454;74;21098;-75
2023/07/04 13:46:54;;;;;;;2.65;0.80;;;28.00;99.90;;;;;;1944542;72;22117;-76
2023/07/04 13:49:45;;;;;;;3.22;0.80;;;28.00;99.90;;;;;;1854197;76;21166;-74
2023/07/04 13:52:37;;;;;;;2.50;0.80;;;28.30;99.90;;;;;;1906111;75;21114;-74
2023/07/04 13:58:09;;;;;;;1.52;0.90;;;28.70;99.90;;;;;;1942016;72;22154;-74
2023/07/04 14:01:00;;;;;;;1.50;0.90;;;28.90;99.90;;;;;;1922542;73;21098;-74
2023/07/04 14:03:53;;;;;;;1.60;0.80;;;29.10;99.90;;;;;;1934662;73;21104;-74
2023/07/04 14:06:51;;;;;;;2.10;0.90;;;29.20;99.90;;;;;;1933371;73;21098;-74
2023/07/04 14:09:39;;;;;;;0.90;0.60;;;29.40;99.90;;;;;;1916745;75;21143;-74
2023/07/04 14:12:31;;;;;;;2.52;0.90;;;29.70;99.90;;;;;;1922657;73;21094;-74
2023/07/04 14:15:22;;;;;;;2.12;0.85;;;29.70;99.50;;;;;;1927202;73;21122;-75
2023/07/04 14:18:15;;;;;;;2.27;1.22;;;29.90;98.90;;;;;;1935070;73;21624;-75
2023/07/04 14:21:09;;;;;;;0.93;0.80;;;29.90;98.90;;;;;;1916219;75;21119;-75
2023/07/04 14:24:01;;;;;;;1.12;0.70;;;30.00;98.70;;;;;;1924707;73;21206;-75
2023/07/04 14:26:54;;;;;;;1.42;0.78;;;30.20;98.70;;;;;;1924594;73;21117;-75
2023/07/04 14:29:45;;;;;;;1.52;0.62;;;30.20;97.80;;;;;;1916922;75;21089;-75
2023/07/04 14:32:38;;;;;;;1.05;0.80;;;30.40;97.80;;;;;;1916989;75;21098;-75
2023/07/04 14:35:29;;;;;;;0.95;0.70;;;30.50;97.70;;;;;;1916659;75;21067;-75
2023/07/04 14:38:21;;;;;;;2.83;0.82;;;30.40;97.70;;;;;;1938930;73;21134;-75
2023/07/04 14:41:13;;;;;;;1.25;0.80;;;30.80;97.20;;;;;;1937540;73;21110;-75
2023/07/04 14:44:08;;;;;;;1.82;0.90;;;31.00;95.90;;;;;;1933323;73;21171;-75
2023/07/04 14:47:00;;;;;;;3.25;0.82;;;31.20;95.30;;;;;;1928855;73;21106;-75
2023/07/04 14:49:56;;;;;;;1.72;1.10;;;31.20;95.10;;;;;;1920175;73;21114;-75
2023/07/04 14:52:47;;;;;;;3.33;0.88;;;31.30;94.40;;;;;;1916872;75;21067;-75
2023/07/04 14:55:39;;;;;;;1.95;1.20;;;31.30;93.70;;;;;;1916706;75;21173;-75
2023/07/04 14:58:31;;;;;;;0.90;0.80;;;31.40;93.60;;;;;;1924281;74;21227;-75
2023/07/04 15:01:23;;;;;;;1.45;0.88;;;31.70;93.10;;;;;;1876278;76;21148;-74
2023/07/04 15:04:14;;;;;;;4.03;1.10;;;31.80;93.00;;;;;;1923838;73;21106;-75
2023/07/04 15:07:07;;;;;;;1.90;0.90;;;32.10;91.90;;;;;;1916834;75;21167;-74
2023/07/04 15:09:58;;;;;;;1.52;0.80;;;31.90;91.40;;;;;;1916012;75;21055;-75
2023/07/04 15:12:50;;;;;;;2.37;0.80;;;31.80;91.10;;;;;;1916074;75;21562;-75
2023/07/04 15:15:41;;;;;;;0.90;0.80;;;31.90;90.70;;;;;;1916284;75;21100;-75
2023/07/04 15:18:34;;;;;;;1.27;0.80;;;32.00;89.60;;;;;;1916204;75;21107;-75
2023/07/04 15:21:26;;;;;;;3.12;0.70;;;32.00;88.70;;;;;;1933074;73;21123;-74
2023/07/04 15:24:18;;;;;;;1.35;0.90;;;32.10;87.10;;;;;;1915950;75;21110;-75
2023/07/04 15:27:09;;;;;;;1.82;0.90;;;32.60;86.30;;;;;;1916175;75;21198;-75
2023/07/04 15:30:02;;;;;;;1.55;0.80;;;32.80;85.30;;;;;;1916387;73;21633;-75
2023/07/04 15:32:54;;;;;;;2.47;1.00;;;33.20;83.10;;;;;;1932449;73;21074;-75
2023/07/04 15:35:45;;;;;;;2.15;1.00;;;33.70;80.90;;;;;;1916165;75;21118;-76
2023/07/04 15:38:37;;;;;;;1.52;0.80;;;33.90;80.00;;;;;;1916153;75;21099;-75
2023/07/04 15:41:29;;;;;;;2.83;1.10;;;33.60;78.00;;;;;;1938869;73;21129;-75
2023/07/04 15:44:20;;;;;;;1.15;0.90;;;33.70;76.60;;;;;;1916392;75;21094;-75
2023/07/04 15:47:11;;;;;;;1.98;1.15;;;33.20;75.60;;;;;;1915998;75;21203;-75
2023/07/04 15:50:03;;;;;;;3.80;0.88;;;33.30;75.30;;;;;;1915798;75;21113;-75
2023/07/04 15:52:54;;;;;;;2.45;0.90;;;33.50;73.80;;;;;;1915953;75;21211;-75
2023/07/04 15:55:46;;;;;;;1.20;0.85;;;33.30;73.70;;;;;;1915841;75;21102;-75
2023/07/04 15:58:38;;;;;;;1.30;0.80;;;33.20;74.40;;;;;;1910922;75;21093;-75
2023/07/04 16:01:32;;;;;;;1.42;0.98;;;33.50;74.30;;;;;;1925183;74;21118;-75
2023/07/04 16:04:27;;;;;;;0.88;0.68;;;33.70;72.10;;;;;;1916063;75;21155;-75
2023/07/04 16:07:20;;;;;;;1.30;0.95;;;33.50;71.80;;;;;;1916171;75;21163;-75
2023/07/04 16:10:13;;;;;;;2.08;0.90;;;33.90;70.00;;;;;;1903808;75;21094;-75
2023/07/04 16:13:06;;;;;;;0.95;0.78;;;33.70;69.50;;;;;;1930218;73;21115;-75
2023/07/04 16:15:58;;;;;;;2.12;0.85;;;33.90;69.10;;;;;;1906132;74;21134;-75
2023/07/04 16:18:52;;;;;;;1.42;1.10;;;34.40;67.60;;;;;;1916021;75;21192;-75
2023/07/04 16:21:46;;;;;;;2.12;0.80;;;34.90;67.00;;;;;;1916293;75;21490;-76
2023/07/04 16:24:40;;;;;;;1.32;0.90;;;34.90;66.00;;;;;;1915993;75;21634;-75
2023/07/04 16:27:33;;;;;;;2.20;0.80;;;35.00;65.60;;;;;;1914872;74;21098;-74
2023/07/04 16:30:25;;;;;;;0.98;0.80;;;35.20;64.60;;;;;;1908284;74;21103;-75
2023/07/04 16:33:19;;;;;;;2.45;0.90;;;35.20;63.60;;;;;;1903726;75;21146;-75
2023/07/04 16:36:17;;;;;;;1.87;0.90;;;35.30;63.10;;;;;;1903777;75;21447;-75
2023/07/04 16:41:53;;;;;;;1.32;1.17;;;35.00;61.90;;;;;;1928141;72;22721;-74
2023/07/04 16:44:43;;;;;;;2.25;0.98;;;35.30;61.30;;;;;;1894929;75;21179;-75
2023/07/04 16:47:34;;;;;;;1.50;1.00;;;35.30;61.30;;;;;;1897394;75;21546;-75
2023/07/04 16:50:26;;;;;;;1.22;0.98;;;35.50;60.70;;;;;;1898110;75;21102;-75
2023/07/04 16:53:18;;;;;;;1.62;0.95;;;35.40;59.30;;;;;;1894635;75;21132;-75
2023/07/04 16:56:10;;;;;;;2.77;0.93;;;34.70;59.90;;;;;;1890751;75;21578;-75